CheckWX is a tool to help pilots better visualize weather data.  It is not intended as a substitute for an official pre-flight weather briefing.

07:44:03 UTC

EGLC TAF
London City Airport
London, United Kingdom
TAF EGLC 180508Z 1806/1815 VRB03KT 9999 FEW040 TEMPO 1808/1815 4000 RA SHRA PROB40 TEMPO 1810/1812 +SHRA BKN014

Jun-18@
06:00 UTC

Jun-18 @ 06:00 UTC

Jun-18@
15:00 UTC

Jun-18 @ 15:00 UTC

TAF EGLC 180508Z 1806/1815 VRB03KT 9999 FEW040
Wind
  • Variable at 3 KTS
Cloud Levels
  • Few at 4,000' AGL

Jun-18@
08:00 UTC

Jun-18 @ 08:00 UTC

Jun-18@
15:00 UTC

Jun-18 @ 15:00 UTC

TEMPO 1808/1815 4000 RA SHRA

Temporary

Temporary Changes expected for less than half the time period

Conditions
Rain, Rain

Jun-18@
10:00 UTC

Jun-18 @ 10:00 UTC

Jun-18@
12:00 UTC

Jun-18 @ 12:00 UTC

PROB40 TEMPO 1810/1812 +SHRA BKN014

Temporary - 40% Likelihood

Temporary - 40% Likelihood during this time.

Conditions
Heavy Rain
Cloud Levels
  • Broken at 1,400' AGL